createdAt,value
2019-05-07T00:01:02.853Z,9.77
2019-05-07T00:03:32.856Z,10.23
2019-05-07T00:06:02.824Z,13.57
2019-05-07T00:08:32.179Z,10.70
2019-05-07T00:11:02.273Z,10.00
2019-05-07T00:13:33.113Z,9.63
2019-05-07T00:16:02.479Z,11.00
2019-05-07T00:18:32.212Z,10.00
2019-05-07T00:21:03.369Z,11.03
2019-05-07T00:23:32.505Z,12.57
2019-05-07T00:26:02.368Z,9.90
2019-05-07T00:28:46.218Z,11.73
2019-05-07T00:31:14.674Z,11.20
2019-05-07T00:33:43.478Z,12.53
2019-05-07T00:36:32.227Z,11.40
2019-05-07T00:39:07.373Z,12.10
2019-05-07T00:41:49.468Z,11.63
2019-05-07T00:44:18.570Z,11.43
2019-05-07T00:46:47.272Z,10.43
2019-05-07T00:49:15.697Z,9.83
2019-05-07T00:51:44.170Z,11.23
2019-05-07T00:54:12.611Z,11.77
2019-05-07T00:56:42.906Z,11.87
2019-05-07T00:59:13.080Z,12.83
2019-05-07T01:01:43.233Z,12.90
2019-05-07T01:04:12.049Z,11.50
2019-05-07T01:06:42.367Z,10.50
2019-05-07T01:09:12.337Z,11.77
2019-05-07T01:11:42.941Z,11.93
2019-05-07T01:14:12.377Z,11.83
2019-05-07T01:16:42.057Z,11.43
2019-05-07T01:19:12.514Z,11.50
2019-05-07T01:21:43.076Z,10.47
2019-05-07T01:24:12.325Z,11.20
2019-05-07T01:26:42.566Z,10.20
2019-05-07T01:29:12.917Z,13.97
2019-05-07T01:31:43.217Z,9.43
2019-05-07T01:34:13.348Z,10.20
2019-05-07T01:36:42.700Z,13.17
2019-05-07T01:39:13.107Z,12.90
2019-05-07T01:41:42.015Z,11.43
2019-05-07T01:44:12.715Z,11.57
2019-05-07T01:46:42.207Z,10.67
2019-05-07T01:49:12.536Z,10.43
2019-05-07T01:51:56.176Z,13.07
2019-05-07T01:54:24.630Z,11.83
2019-05-07T01:56:53.052Z,11.00
2019-05-07T01:59:22.462Z,13.17
2019-05-07T02:01:52.780Z,10.83
2019-05-07T02:04:38.193Z,11.53
2019-05-07T02:07:22.585Z,11.10
2019-05-07T02:10:02.800Z,10.87
2019-05-07T02:12:36.288Z,13.70
2019-05-07T02:15:07.000Z,11.57
2019-05-07T02:17:35.502Z,11.57
2019-05-07T02:20:06.405Z,11.70
2019-05-07T02:22:34.855Z,11.03
2019-05-07T02:25:03.489Z,15.33
2019-05-07T02:27:32.895Z,12.30
2019-05-07T02:30:04.327Z,13.80
2019-05-07T02:32:33.600Z,10.33
2019-05-07T02:35:03.978Z,10.93
2019-05-07T02:37:46.463Z,12.33
2019-05-07T02:40:16.897Z,13.70
2019-05-07T02:42:45.407Z,11.30
2019-05-07T02:45:24.555Z,11.33
2019-05-07T02:47:53.012Z,14.47
2019-05-07T02:50:23.086Z,11.10
2019-05-07T02:52:53.889Z,11.73
2019-05-07T02:55:43.438Z,11.27
2019-05-07T02:58:13.551Z,11.00
2019-05-07T03:00:43.456Z,10.93
2019-05-07T03:03:13.817Z,10.37
2019-05-07T03:05:43.187Z,11.47
2019-05-07T03:08:13.383Z,14.20
2019-05-07T03:10:43.446Z,13.97
2019-05-07T03:13:13.818Z,10.97
2019-05-07T03:15:43.539Z,14.20
2019-05-07T03:18:13.847Z,13.37
2019-05-07T03:21:24.282Z,11.60
2019-05-07T03:23:57.309Z,11.83
2019-05-07T03:26:27.404Z,13.03
2019-05-07T03:28:57.512Z,11.23
2019-05-07T03:31:46.655Z,12.37
2019-05-07T03:34:25.576Z,10.80
2019-05-07T03:36:56.782Z,11.10
2019-05-07T03:39:26.898Z,13.67
2019-05-07T03:41:55.413Z,13.53
2019-05-07T03:44:28.207Z,11.60
2019-05-07T03:47:03.183Z,10.90
2019-05-07T03:49:34.181Z,10.73
2019-05-07T03:52:04.385Z,12.13
2019-05-07T03:54:34.058Z,12.63
2019-05-07T03:57:10.905Z,12.83
2019-05-07T03:59:59.746Z,19.50
2019-05-07T04:02:28.204Z,23.70
2019-05-07T04:04:56.648Z,16.17
2019-05-07T04:07:25.334Z,13.90
2019-05-07T04:09:53.800Z,14.30
2019-05-07T04:12:23.960Z,14.70
2019-05-07T04:14:53.437Z,14.37
2019-05-07T04:17:26.652Z,12.20
2019-05-07T04:19:53.358Z,11.47
2019-05-07T04:22:25.216Z,12.57
2019-05-07T04:24:53.719Z,14.00
2019-05-07T04:27:59.696Z,10.87
2019-05-07T04:30:29.024Z,14.30
2019-05-07T04:32:59.085Z,11.67
2019-05-07T04:35:29.191Z,12.17
2019-05-07T04:38:01.810Z,11.30
2019-05-07T04:40:28.003Z,11.87
2019-05-07T04:42:56.462Z,10.30
2019-05-07T04:45:24.880Z,12.60
2019-05-07T04:47:53.973Z,11.03
2019-05-07T04:50:38.095Z,12.03
2019-05-07T04:52:54.425Z,21.27
2019-05-07T04:55:23.084Z,14.57
2019-05-07T04:57:53.335Z,17.03
2019-05-07T05:00:22.988Z,12.50
2019-05-07T05:02:56.205Z,17.03
2019-05-07T05:05:25.255Z,13.63
2019-05-07T05:07:53.705Z,13.13
2019-05-07T05:10:23.123Z,11.77
2019-05-07T05:12:53.673Z,11.43
2019-05-07T05:15:22.292Z,11.50
2019-05-07T05:17:53.701Z,10.77
2019-05-07T05:20:23.131Z,10.67
2019-05-07T05:23:12.112Z,13.03
2019-05-07T05:25:43.793Z,12.87
2019-05-07T05:28:12.808Z,11.53
2019-05-07T05:30:43.380Z,10.47
2019-05-07T05:33:12.587Z,12.37
2019-05-07T05:35:43.160Z,11.00
2019-05-07T05:38:12.699Z,10.23
2019-05-07T05:40:42.771Z,10.63
2019-05-07T05:43:22.460Z,11.73
2019-05-07T05:45:58.879Z,11.97
2019-05-07T05:48:27.301Z,12.40
2019-05-07T05:50:57.369Z,13.30
2019-05-07T05:53:36.296Z,10.73
2019-05-07T05:56:09.070Z,11.57
2019-05-07T05:58:53.840Z,11.40
2019-05-07T06:01:23.923Z,10.13
2019-05-07T06:03:56.974Z,9.77
2019-05-07T06:06:33.477Z,10.67
2019-05-07T06:09:21.764Z,10.70
2019-05-07T06:12:07.942Z,9.13
2019-05-07T06:14:56.171Z,12.93
2019-05-07T06:17:28.980Z,10.07
2019-05-07T06:20:07.998Z,12.67
2019-05-07T06:22:42.445Z,11.33
2019-05-07T06:25:14.792Z,13.70
2019-05-07T06:27:43.290Z,10.73
2019-05-07T06:30:12.686Z,10.50
2019-05-07T06:32:43.007Z,11.03
2019-05-07T06:35:12.261Z,13.13
2019-05-07T06:37:42.915Z,14.93
2019-05-07T06:40:32.342Z,18.00
2019-05-07T06:43:03.170Z,14.33
2019-05-07T06:45:42.313Z,13.23
2019-05-07T06:48:12.672Z,12.27
2019-05-07T06:50:43.217Z,11.33
2019-05-07T06:53:12.132Z,12.23
2019-05-07T06:55:42.733Z,11.73
2019-05-07T06:58:12.260Z,13.87
2019-05-07T07:00:42.501Z,11.53
2019-05-07T07:03:15.843Z,10.47
2019-05-07T07:05:45.914Z,11.20
2019-05-07T07:08:24.757Z,12.33
2019-05-07T07:11:12.845Z,12.70
2019-05-07T07:13:42.697Z,12.03
2019-05-07T07:16:12.668Z,14.20
2019-05-07T07:18:51.192Z,10.30
2019-05-07T07:21:12.366Z,12.03
2019-05-07T07:23:42.990Z,10.23
2019-05-07T07:26:12.614Z,11.93
2019-05-07T07:28:49.196Z,9.50
2019-05-07T07:31:28.273Z,11.47
2019-05-07T07:33:58.433Z,11.03
2019-05-07T07:36:28.497Z,13.03
2019-05-07T07:38:56.943Z,11.60
2019-05-07T07:41:33.230Z,11.63
2019-05-07T07:44:02.185Z,13.60
2019-05-07T07:46:32.825Z,14.60
2019-05-07T07:49:07.871Z,10.63
2019-05-07T07:51:40.501Z,10.73
2019-05-07T07:54:02.506Z,11.23
2019-05-07T07:56:48.330Z,9.83
2019-05-07T07:59:07.721Z,10.97
2019-05-07T08:01:42.155Z,10.23
2019-05-07T08:04:12.302Z,8.47
2019-05-07T08:06:42.087Z,11.63
2019-05-07T08:09:12.925Z,10.30
2019-05-07T08:11:42.583Z,11.37
2019-05-07T08:14:12.618Z,9.90
2019-05-07T08:16:43.009Z,11.33
2019-05-07T08:19:19.347Z,11.30
2019-05-07T08:21:42.120Z,13.33
2019-05-07T08:24:12.264Z,10.77
2019-05-07T08:26:42.780Z,10.03
2019-05-07T08:29:11.928Z,8.50
2019-05-07T08:31:58.909Z,8.43
2019-05-07T08:34:44.089Z,9.23
2019-05-07T08:37:12.524Z,12.77
2019-05-07T08:39:42.414Z,8.30
2019-05-07T08:42:12.287Z,9.03
2019-05-07T08:45:02.952Z,10.73
2019-05-07T08:47:35.181Z,7.07
2019-05-07T08:50:06.025Z,9.43
2019-05-07T08:52:34.449Z,9.30
2019-05-07T08:55:02.892Z,6.93
2019-05-07T08:57:31.893Z,9.20
2019-05-07T09:00:02.228Z,7.70
2019-05-07T09:02:32.414Z,7.77
2019-05-07T09:05:03.005Z,8.00
2019-05-07T09:07:32.190Z,8.10
2019-05-07T09:10:02.514Z,7.23
2019-05-07T09:12:31.830Z,7.37
2019-05-07T09:15:02.157Z,8.67
2019-05-07T09:17:31.878Z,7.33
2019-05-07T09:20:02.382Z,5.83
2019-05-07T09:22:32.347Z,5.80
2019-05-07T09:25:03.147Z,8.80
2019-05-07T09:27:32.932Z,7.13
2019-05-07T09:30:03.057Z,6.90
2019-05-07T09:32:33.262Z,8.27
2019-05-07T09:35:03.397Z,6.30
2019-05-07T09:37:32.761Z,6.40
2019-05-07T09:40:02.822Z,8.47
2019-05-07T09:42:33.302Z,5.57
2019-05-07T09:45:02.024Z,6.93
2019-05-07T09:47:32.553Z,5.47
2019-05-07T09:50:07.037Z,4.93
2019-05-07T09:52:32.105Z,6.70
2019-05-07T09:55:11.099Z,5.03
2019-05-07T09:57:33.919Z,7.03
2019-05-07T10:00:02.288Z,4.77
2019-05-07T10:02:32.099Z,4.43
2019-05-07T10:05:02.392Z,6.20
2019-05-07T10:07:32.431Z,7.80
2019-05-07T10:10:14.096Z,4.90
2019-05-07T10:12:44.338Z,6.47
2019-05-07T10:15:13.109Z,4.47
2019-05-07T10:17:49.223Z,5.00
2019-05-07T10:20:22.673Z,4.20
2019-05-07T10:22:51.903Z,8.47
2019-05-07T10:25:22.268Z,7.90
2019-05-07T10:27:53.244Z,7.40
2019-05-07T10:30:22.013Z,7.90
2019-05-07T10:32:52.760Z,6.47
2019-05-07T10:35:22.957Z,4.37
2019-05-07T10:37:52.801Z,4.40
2019-05-07T10:40:22.390Z,5.63
2019-05-07T10:42:51.918Z,5.13
2019-05-07T10:45:38.377Z,4.47
2019-05-07T10:48:23.358Z,4.50
2019-05-07T10:50:53.424Z,5.90
2019-05-07T10:53:22.937Z,4.93
2019-05-07T10:55:51.546Z,4.13
2019-05-07T10:58:20.055Z,5.40
2019-05-07T11:00:48.485Z,4.27
2019-05-07T11:03:17.012Z,4.53
2019-05-07T11:05:45.436Z,3.63
2019-05-07T11:08:13.859Z,4.47
2019-05-07T11:10:42.738Z,5.60
2019-05-07T11:13:12.876Z,10.00
2019-05-07T11:15:43.086Z,6.93
2019-05-07T11:18:13.437Z,3.80
2019-05-07T11:20:49.762Z,4.80
2019-05-07T11:23:12.350Z,6.62
2019-05-07T11:25:42.056Z,4.22
2019-05-07T11:28:12.387Z,4.00
2019-05-07T11:30:42.503Z,3.55
2019-05-07T11:33:12.865Z,4.70
2019-05-07T11:35:42.262Z,4.15
2019-05-07T11:38:18.753Z,3.75
2019-05-07T11:40:42.693Z,4.00
2019-05-07T11:43:19.120Z,4.90
2019-05-07T11:45:49.194Z,6.78
2019-05-07T11:48:29.655Z,6.25
2019-05-07T11:51:05.211Z,4.22
2019-05-07T11:53:35.289Z,6.05
2019-05-07T11:56:03.776Z,4.65
2019-05-07T11:58:32.638Z,6.53
2019-05-07T12:01:03.964Z,5.12
2019-05-07T12:03:32.717Z,4.45
2019-05-07T12:06:02.125Z,5.05
2019-05-07T12:08:48.125Z,8.30
2019-05-07T12:11:11.780Z,5.20
2019-05-07T12:13:42.562Z,5.33
2019-05-07T12:16:13.950Z,3.52
2019-05-07T12:18:42.963Z,4.00
2019-05-07T12:21:20.759Z,3.77
2019-05-07T12:23:44.278Z,3.40
2019-05-07T12:26:12.824Z,3.35
2019-05-07T12:28:41.869Z,5.60
2019-05-07T12:31:22.433Z,3.70
2019-05-07T12:33:55.369Z,4.80
2019-05-07T12:36:23.831Z,4.15
2019-05-07T12:38:53.276Z,4.20
2019-05-07T12:41:33.830Z,4.30
2019-05-07T12:44:04.403Z,6.45
2019-05-07T12:46:33.756Z,4.47
2019-05-07T12:49:03.156Z,6.37
2019-05-07T12:51:37.378Z,4.25
2019-05-07T12:54:08.417Z,5.28
2019-05-07T12:56:36.892Z,5.12
2019-05-07T12:59:05.328Z,4.45
2019-05-07T13:01:52.011Z,3.90
2019-05-07T13:04:24.529Z,5.92
2019-05-07T13:06:57.312Z,4.35
2019-05-07T13:09:25.723Z,5.17
2019-05-07T13:11:54.219Z,4.08
2019-05-07T13:14:22.639Z,6.03
2019-05-07T13:16:52.296Z,5.05
2019-05-07T13:19:22.674Z,3.83
2019-05-07T13:21:51.233Z,5.87
2019-05-07T13:24:19.652Z,4.40
2019-05-07T13:26:48.084Z,5.65
2019-05-07T13:29:16.508Z,4.37
2019-05-07T13:31:45.856Z,4.20
2019-05-07T13:34:14.529Z,5.40
2019-05-07T13:36:44.661Z,4.85
2019-05-07T13:39:14.856Z,5.37
2019-05-07T13:41:44.930Z,5.08
2019-05-07T13:44:17.630Z,4.40
2019-05-07T13:46:46.709Z,4.72
2019-05-07T13:49:38.828Z,5.08
2019-05-07T13:52:07.404Z,6.00
2019-05-07T13:54:35.882Z,5.67
2019-05-07T13:57:04.317Z,5.87
2019-05-07T13:59:32.749Z,4.80
2019-05-07T14:02:05.032Z,5.47
2019-05-07T14:04:34.706Z,4.67
2019-05-07T14:07:03.285Z,4.10
2019-05-07T14:09:32.616Z,4.83
2019-05-07T14:12:02.009Z,5.92
2019-05-07T14:14:34.185Z,5.15
2019-05-07T14:17:02.356Z,4.47
2019-05-07T14:19:32.718Z,4.67
2019-05-07T14:22:13.888Z,5.55
2019-05-07T14:24:32.790Z,5.35
2019-05-07T14:27:02.050Z,4.60
2019-05-07T14:29:32.050Z,4.47
2019-05-07T14:32:02.402Z,4.12
2019-05-07T14:34:34.891Z,4.75
2019-05-07T14:37:13.061Z,6.17
2019-05-07T14:39:42.556Z,4.37
2019-05-07T14:42:12.947Z,5.75
2019-05-07T14:44:47.991Z,5.53
2019-05-07T14:47:17.851Z,4.87
2019-05-07T14:49:46.598Z,4.47
2019-05-07T14:52:22.652Z,5.33
2019-05-07T14:54:45.341Z,4.53
2019-05-07T14:57:14.017Z,6.17
2019-05-07T14:59:42.808Z,5.00
2019-05-07T15:02:12.071Z,3.85
2019-05-07T15:04:41.957Z,5.42
2019-05-07T15:07:11.948Z,5.85
2019-05-07T15:09:42.473Z,4.40
2019-05-07T15:12:12.437Z,4.92
2019-05-07T15:14:42.167Z,5.90
2019-05-07T15:17:18.155Z,4.62
2019-05-07T15:19:46.583Z,6.03
2019-05-07T15:22:25.406Z,5.70
2019-05-07T15:24:53.892Z,5.50
2019-05-07T15:27:22.924Z,4.92
2019-05-07T15:29:52.651Z,4.42
2019-05-07T15:32:21.892Z,4.15
2019-05-07T15:34:52.552Z,4.03
2019-05-07T15:37:20.648Z,4.78
2019-05-07T15:39:49.080Z,5.05
2019-05-07T15:42:17.551Z,5.03
2019-05-07T15:44:45.988Z,4.20
2019-05-07T15:47:16.045Z,4.42
2019-05-07T15:49:44.477Z,4.30
2019-05-07T15:52:32.596Z,4.22
2019-05-07T15:55:02.747Z,4.75
2019-05-07T15:57:32.789Z,4.72
2019-05-07T16:00:06.067Z,4.97
2019-05-07T16:02:36.133Z,5.30
2019-05-07T16:05:06.702Z,5.08
2019-05-07T16:07:35.293Z,5.55
2019-05-07T16:10:04.847Z,5.65
2019-05-07T16:12:33.269Z,4.22
2019-05-07T16:15:03.184Z,7.30
2019-05-07T16:17:33.699Z,5.10
2019-05-07T16:20:03.198Z,5.78
2019-05-07T16:22:36.609Z,5.92
2019-05-07T16:25:07.456Z,4.92
2019-05-07T16:27:37.722Z,5.65
2019-05-07T16:30:07.010Z,5.90
2019-05-07T16:32:35.428Z,5.58
2019-05-07T16:35:05.635Z,6.05
2019-05-07T16:37:34.297Z,5.03
2019-05-07T16:40:04.792Z,4.42
2019-05-07T16:42:33.262Z,4.85
2019-05-07T16:45:02.876Z,4.83
2019-05-07T16:47:32.471Z,4.80
2019-05-07T16:50:04.027Z,8.00
2019-05-07T16:52:34.749Z,8.68
2019-05-07T16:55:02.974Z,4.85
2019-05-07T16:57:38.991Z,5.12
2019-05-07T17:00:10.906Z,4.78
2019-05-07T17:02:43.494Z,5.05
2019-05-07T17:05:13.570Z,4.95
2019-05-07T17:07:51.976Z,8.18
2019-05-07T17:10:22.217Z,7.55
2019-05-07T17:12:52.253Z,7.55
2019-05-07T17:15:22.610Z,4.78
2019-05-07T17:17:52.261Z,6.42
2019-05-07T17:20:21.950Z,5.58
2019-05-07T17:22:51.928Z,6.55
2019-05-07T17:25:38.547Z,7.37
2019-05-07T17:28:07.887Z,5.25
2019-05-07T17:30:37.741Z,5.10
2019-05-07T17:33:07.079Z,5.78
2019-05-07T17:35:35.510Z,4.85
2019-05-07T17:38:07.274Z,5.53
2019-05-07T17:40:34.221Z,15.45
2019-05-07T17:43:03.172Z,4.35
2019-05-07T17:45:37.553Z,7.55
2019-05-07T17:48:05.971Z,4.90
2019-05-07T17:50:52.599Z,6.90
2019-05-07T17:53:22.521Z,4.10
2019-05-07T17:55:52.961Z,6.90
2019-05-07T17:58:21.267Z,4.28
2019-05-07T18:00:52.901Z,4.72
2019-05-07T18:03:34.141Z,4.00
2019-05-07T18:06:03.123Z,5.80
2019-05-07T18:08:32.474Z,5.12
2019-05-07T18:11:02.264Z,4.95
2019-05-07T18:13:32.271Z,4.45
2019-05-07T18:16:03.016Z,4.78
2019-05-07T18:18:32.791Z,5.28
2019-05-07T18:21:02.231Z,6.83
2019-05-07T18:23:32.172Z,5.10
2019-05-07T18:26:00.901Z,6.10
2019-05-07T18:28:29.466Z,6.12
2019-05-07T18:30:58.101Z,3.98
2019-05-07T18:33:28.242Z,4.92
2019-05-07T18:35:56.680Z,3.85
2019-05-07T18:38:25.098Z,4.67
2019-05-07T18:40:53.551Z,6.12
2019-05-07T18:43:22.604Z,8.93
2019-05-07T18:45:51.713Z,5.05
2019-05-07T18:48:22.278Z,4.92
2019-05-07T18:50:52.191Z,4.62
2019-05-07T18:53:22.737Z,8.08
2019-05-07T18:55:51.728Z,10.13
2019-05-07T18:58:22.274Z,5.60
2019-05-07T19:01:02.682Z,8.10
2019-05-07T19:03:32.499Z,5.17
2019-05-07T19:06:02.776Z,6.07
2019-05-07T19:08:32.635Z,5.17
2019-05-07T19:11:01.352Z,9.50
2019-05-07T19:13:29.798Z,7.17
2019-05-07T19:15:58.234Z,7.70
2019-05-07T19:18:26.651Z,7.20
2019-05-07T19:20:55.091Z,5.60
2019-05-07T19:23:23.497Z,6.65
2019-05-07T19:25:52.406Z,6.23
2019-05-07T19:28:22.488Z,7.90
2019-05-07T19:30:52.829Z,6.63
2019-05-07T19:33:26.446Z,5.28
2019-05-07T19:35:52.765Z,6.97
2019-05-07T19:38:33.868Z,6.47
2019-05-07T19:41:02.352Z,5.23
2019-05-07T19:43:32.547Z,5.97
2019-05-07T19:46:02.905Z,4.80
2019-05-07T19:48:32.324Z,4.40
2019-05-07T19:51:02.911Z,5.07
2019-05-07T19:53:32.697Z,7.77
2019-05-07T19:56:09.021Z,4.92
2019-05-07T19:58:37.466Z,8.47
2019-05-07T20:01:06.641Z,7.08
2019-05-07T20:03:35.125Z,7.10
2019-05-07T20:06:04.097Z,6.33
2019-05-07T20:08:32.538Z,7.90
2019-05-07T20:11:18.992Z,6.53
2019-05-07T20:13:47.399Z,5.90
2019-05-07T20:16:19.496Z,5.77
2019-05-07T20:18:48.402Z,5.57
2019-05-07T20:21:16.908Z,5.83
2019-05-07T20:23:45.425Z,8.50
2019-05-07T20:26:13.861Z,5.80
2019-05-07T20:28:42.326Z,6.37
2019-05-07T20:31:12.150Z,7.60
2019-05-07T20:33:42.198Z,8.20
2019-05-07T20:36:10.911Z,6.53
2019-05-07T20:38:39.343Z,5.10
2019-05-07T20:41:07.768Z,5.17
2019-05-07T20:43:36.208Z,5.37
2019-05-07T20:46:04.622Z,6.20
2019-05-07T20:48:33.058Z,5.30
2019-05-07T20:51:01.465Z,6.60
2019-05-07T20:53:48.316Z,6.90
2019-05-07T20:56:18.366Z,9.23
2019-05-07T20:58:46.797Z,6.50
2019-05-07T21:01:15.226Z,5.23
2019-05-07T21:03:43.665Z,4.50
2019-05-07T21:06:12.172Z,6.50
2019-05-07T21:08:42.716Z,4.60
2019-05-07T21:11:11.903Z,6.67
2019-05-07T21:13:42.670Z,5.73
2019-05-07T21:16:12.607Z,7.83
2019-05-07T21:18:42.084Z,6.53
2019-05-07T21:21:12.497Z,4.30
2019-05-07T21:23:43.196Z,5.93
2019-05-07T21:26:13.106Z,5.67
2019-05-07T21:28:43.263Z,6.17
2019-05-07T21:31:12.025Z,7.70
2019-05-07T21:33:42.728Z,4.87
2019-05-07T21:36:12.128Z,5.83
2019-05-07T21:38:42.497Z,7.87
2019-05-07T21:41:12.877Z,6.07
2019-05-07T21:43:45.604Z,7.73
2019-05-07T21:46:12.819Z,7.67
2019-05-07T21:48:41.507Z,8.00
2019-05-07T21:51:12.089Z,5.70
2019-05-07T21:53:47.714Z,6.27
2019-05-07T21:56:17.786Z,5.87
2019-05-07T21:58:47.876Z,5.77
2019-05-07T22:01:23.697Z,6.23
2019-05-07T22:03:53.594Z,7.03
2019-05-07T22:06:22.718Z,5.07
2019-05-07T22:08:54.442Z,8.13
2019-05-07T22:11:22.990Z,5.60
2019-05-07T22:13:52.786Z,6.03
2019-05-07T22:16:22.285Z,5.10
2019-05-07T22:18:52.184Z,7.50
2019-05-07T22:21:20.758Z,6.07
2019-05-07T22:23:49.191Z,5.10
2019-05-07T22:26:22.948Z,5.40
2019-05-07T22:28:47.749Z,4.80
2019-05-07T22:31:17.816Z,5.37
2019-05-07T22:33:47.966Z,6.27
2019-05-07T22:36:16.378Z,7.37
2019-05-07T22:38:44.815Z,5.77
2019-05-07T22:41:13.234Z,7.87
2019-05-07T22:43:42.483Z,5.37
2019-05-07T22:46:12.451Z,6.57
2019-05-07T22:48:41.866Z,6.83
2019-05-07T22:51:12.240Z,6.77
2019-05-07T22:53:40.725Z,8.43
2019-05-07T22:56:09.142Z,8.23
2019-05-07T22:58:44.938Z,6.80
2019-05-07T23:01:14.985Z,7.23
2019-05-07T23:03:43.419Z,6.53
2019-05-07T23:06:12.365Z,7.40
2019-05-07T23:08:42.409Z,7.13
2019-05-07T23:11:12.282Z,6.00
2019-05-07T23:13:42.671Z,5.90
2019-05-07T23:16:12.600Z,5.60
2019-05-07T23:18:42.869Z,6.00
2019-05-07T23:21:11.754Z,6.27
2019-05-07T23:23:42.224Z,8.00
2019-05-07T23:26:14.277Z,10.60
2019-05-07T23:28:41.876Z,7.50
2019-05-07T23:31:12.100Z,6.43
2019-05-07T23:33:40.596Z,10.07
2019-05-07T23:36:09.090Z,6.63
2019-05-07T23:38:38.061Z,8.97
2019-05-07T23:41:22.182Z,6.43
2019-05-07T23:44:08.484Z,7.27
2019-05-07T23:46:36.941Z,6.93
2019-05-07T23:49:05.355Z,8.70
2019-05-07T23:51:33.793Z,7.50
2019-05-07T23:54:02.912Z,8.10
2019-05-07T23:56:32.909Z,7.40
2019-05-07T23:59:02.128Z,6.63
